sensor_id;sensor_type;location;lat;lon;timestamp;temperature;humidity
6865;DHT22;3471;49.678;8.388;2023-07-02T00:01:12;18.90;99.90
6865;DHT22;3471;49.678;8.388;2023-07-02T00:03:38;18.80;99.90
6865;DHT22;3471;49.678;8.388;2023-07-02T00:06:04;18.80;99.90
6865;DHT22;3471;49.678;8.388;2023-07-02T00:08:30;18.80;99.90
6865;DHT22;3471;49.678;8.388;2023-07-02T00:10:55;18.80;99.90
6865;DHT22;3471;49.678;8.388;2023-07-02T00:13:21;18.70;99.90
6865;DHT22;3471;49.678;8.388;2023-07-02T00:15:46;18.70;99.90
6865;DHT22;3471;49.678;8.388;2023-07-02T00:18:12;18.60;99.90
6865;DHT22;3471;49.678;8.388;2023-07-02T00:20:42;18.60;99.90
6865;DHT22;3471;49.678;8.388;2023-07-02T00:23:07;18.60;99.90
6865;DHT22;3471;49.678;8.388;2023-07-02T00:25:38;18.60;99.90
6865;DHT22;3471;49.678;8.388;2023-07-02T00:28:05;18.60;99.90
6865;DHT22;3471;49.678;8.388;2023-07-02T00:30:30;18.60;99.90
6865;DHT22;3471;49.678;8.388;2023-07-02T00:32:56;18.70;99.90
6865;DHT22;3471;49.678;8.388;2023-07-02T00:35:21;18.70;99.90
6865;DHT22;3471;49.678;8.388;2023-07-02T00:37:48;18.70;99.90
6865;DHT22;3471;49.678;8.388;2023-07-02T00:40:14;18.80;99.90
6865;DHT22;3471;49.678;8.388;2023-07-02T00:42:39;18.80;99.90
6865;DHT22;3471;49.678;8.388;2023-07-02T00:45:06;18.90;99.90
6865;DHT22;3471;49.678;8.388;2023-07-02T00:47:35;19.00;99.90
6865;DHT22;3471;49.678;8.388;2023-07-02T00:50:02;18.90;99.90
6865;DHT22;3471;49.678;8.388;2023-07-02T00:52:28;18.90;99.90
6865;DHT22;3471;49.678;8.388;2023-07-02T00:54:54;18.90;99.90
6865;DHT22;3471;49.678;8.388;2023-07-02T00:57:19;18.90;99.90
6865;DHT22;3471;49.678;8.388;2023-07-02T00:59:45;18.90;99.90
6865;DHT22;3471;49.678;8.388;2023-07-02T01:02:11;18.90;99.90
6865;DHT22;3471;49.678;8.388;2023-07-02T01:04:38;18.90;99.90
6865;DHT22;3471;49.678;8.388;2023-07-02T01:07:05;18.90;99.90
6865;DHT22;3471;49.678;8.388;2023-07-02T01:09:35;18.90;99.90
6865;DHT22;3471;49.678;8.388;2023-07-02T01:12:05;18.90;99.90
6865;DHT22;3471;49.678;8.388;2023-07-02T01:14:37;18.80;99.90
6865;DHT22;3471;49.678;8.388;2023-07-02T01:17:05;18.80;99.90
6865;DHT22;3471;49.678;8.388;2023-07-02T01:19:51;18.70;99.90
6865;DHT22;3471;49.678;8.388;2023-07-02T01:22:24;18.70;99.90
6865;DHT22;3471;49.678;8.388;2023-07-02T01:24:54;18.70;99.90
6865;DHT22;3471;49.678;8.388;2023-07-02T01:27:19;18.70;99.90
6865;DHT22;3471;49.678;8.388;2023-07-02T01:29:46;18.60;99.90
6865;DHT22;3471;49.678;8.388;2023-07-02T01:32:12;18.60;99.90
6865;DHT22;3471;49.678;8.388;2023-07-02T01:34:38;18.60;99.90
6865;DHT22;3471;49.678;8.388;2023-07-02T01:37:05;18.60;99.90
6865;DHT22;3471;49.678;8.388;2023-07-02T01:39:31;18.70;99.90
6865;DHT22;3471;49.678;8.388;2023-07-02T01:42:10;18.60;99.90
6865;DHT22;3471;49.678;8.388;2023-07-02T01:44:36;18.60;99.90
6865;DHT22;3471;49.678;8.388;2023-07-02T01:47:02;18.60;99.90
6865;DHT22;3471;49.678;8.388;2023-07-02T01:49:28;18.50;99.90
6865;DHT22;3471;49.678;8.388;2023-07-02T01:51:55;18.50;99.90
6865;DHT22;3471;49.678;8.388;2023-07-02T01:54:23;18.50;99.90
6865;DHT22;3471;49.678;8.388;2023-07-02T01:56:49;18.50;99.90
6865;DHT22;3471;49.678;8.388;2023-07-02T01:59:15;18.50;99.90
6865;DHT22;3471;49.678;8.388;2023-07-02T02:01:42;18.50;99.90
6865;DHT22;3471;49.678;8.388;2023-07-02T02:04:09;18.50;99.90
6865;DHT22;3471;49.678;8.388;2023-07-02T02:06:35;18.50;99.90
6865;DHT22;3471;49.678;8.388;2023-07-02T02:09:01;18.50;99.90
6865;DHT22;3471;49.678;8.388;2023-07-02T02:11:28;18.50;99.90
6865;DHT22;3471;49.678;8.388;2023-07-02T02:13:54;18.50;99.90
6865;DHT22;3471;49.678;8.388;2023-07-02T02:16:20;18.50;99.90
6865;DHT22;3471;49.678;8.388;2023-07-02T02:18:45;18.50;99.90
6865;DHT22;3471;49.678;8.388;2023-07-02T02:21:11;18.40;99.90
6865;DHT22;3471;49.678;8.388;2023-07-02T02:23:37;18.50;99.90
6865;DHT22;3471;49.678;8.388;2023-07-02T02:26:02;18.40;99.90
6865;DHT22;3471;49.678;8.388;2023-07-02T02:28:28;18.40;99.90
6865;DHT22;3471;49.678;8.388;2023-07-02T02:30:53;18.40;99.90
6865;DHT22;3471;49.678;8.388;2023-07-02T02:33:19;18.40;99.90
6865;DHT22;3471;49.678;8.388;2023-07-02T02:35:45;18.40;99.90
6865;DHT22;3471;49.678;8.388;2023-07-02T02:38:11;18.30;99.90
6865;DHT22;3471;49.678;8.388;2023-07-02T02:40:37;18.20;99.90
6865;DHT22;3471;49.678;8.388;2023-07-02T02:43:04;18.20;99.90
6865;DHT22;3471;49.678;8.388;2023-07-02T02:45:29;18.20;99.90
6865;DHT22;3471;49.678;8.388;2023-07-02T02:47:55;18.30;99.90
6865;DHT22;3471;49.678;8.388;2023-07-02T02:50:20;18.30;99.90
6865;DHT22;3471;49.678;8.388;2023-07-02T02:52:46;18.30;99.90
6865;DHT22;3471;49.678;8.388;2023-07-02T02:55:12;18.30;99.90
6865;DHT22;3471;49.678;8.388;2023-07-02T02:57:37;18.30;99.90
6865;DHT22;3471;49.678;8.388;2023-07-02T03:00:03;18.20;99.90
6865;DHT22;3471;49.678;8.388;2023-07-02T03:02:30;18.20;99.90
6865;DHT22;3471;49.678;8.388;2023-07-02T03:04:56;18.10;99.90
6865;DHT22;3471;49.678;8.388;2023-07-02T03:07:22;18.10;99.90
6865;DHT22;3471;49.678;8.388;2023-07-02T03:09:48;18.00;99.90
6865;DHT22;3471;49.678;8.388;2023-07-02T03:12:13;18.00;99.90
6865;DHT22;3471;49.678;8.388;2023-07-02T03:14:39;17.90;99.90
6865;DHT22;3471;49.678;8.388;2023-07-02T03:17:05;17.90;99.90
6865;DHT22;3471;49.678;8.388;2023-07-02T03:19:30;17.80;99.90
6865;DHT22;3471;49.678;8.388;2023-07-02T03:21:56;17.80;99.90
6865;DHT22;3471;49.678;8.388;2023-07-02T03:24:21;17.80;99.90
6865;DHT22;3471;49.678;8.388;2023-07-02T03:26:51;17.80;99.90
6865;DHT22;3471;49.678;8.388;2023-07-02T03:29:17;17.70;99.90
6865;DHT22;3471;49.678;8.388;2023-07-02T03:31:49;17.70;99.90
6865;DHT22;3471;49.678;8.388;2023-07-02T03:34:14;17.60;99.90
6865;DHT22;3471;49.678;8.388;2023-07-02T03:36:43;17.60;99.90
6865;DHT22;3471;49.678;8.388;2023-07-02T03:39:10;17.60;99.90
6865;DHT22;3471;49.678;8.388;2023-07-02T03:41:35;17.50;99.90
6865;DHT22;3471;49.678;8.388;2023-07-02T03:44:01;17.50;99.90
6865;DHT22;3471;49.678;8.388;2023-07-02T03:46:26;17.50;99.90
6865;DHT22;3471;49.678;8.388;2023-07-02T03:48:52;17.60;99.90
6865;DHT22;3471;49.678;8.388;2023-07-02T03:51:17;17.60;99.90
6865;DHT22;3471;49.678;8.388;2023-07-02T03:53:46;17.60;99.90
6865;DHT22;3471;49.678;8.388;2023-07-02T03:56:12;17.60;99.90
6865;DHT22;3471;49.678;8.388;2023-07-02T03:58:39;17.60;99.90
6865;DHT22;3471;49.678;8.388;2023-07-02T04:01:04;17.60;99.90
6865;DHT22;3471;49.678;8.388;2023-07-02T04:03:30;17.60;99.90
6865;DHT22;3471;49.678;8.388;2023-07-02T04:05:55;17.60;99.90
6865;DHT22;3471;49.678;8.388;2023-07-02T04:08:21;17.70;99.90
6865;DHT22;3471;49.678;8.388;2023-07-02T04:10:47;17.60;99.90
6865;DHT22;3471;49.678;8.388;2023-07-02T04:13:13;17.60;99.90
6865;DHT22;3471;49.678;8.388;2023-07-02T04:15:38;17.60;99.90
6865;DHT22;3471;49.678;8.388;2023-07-02T04:18:04;17.60;99.90
6865;DHT22;3471;49.678;8.388;2023-07-02T04:20:29;17.60;99.90
6865;DHT22;3471;49.678;8.388;2023-07-02T04:22:55;17.60;99.90
6865;DHT22;3471;49.678;8.388;2023-07-02T04:25:21;17.60;99.90
6865;DHT22;3471;49.678;8.388;2023-07-02T04:27:47;17.60;99.90
6865;DHT22;3471;49.678;8.388;2023-07-02T04:30:13;17.60;99.90
6865;DHT22;3471;49.678;8.388;2023-07-02T04:32:40;17.60;99.90
6865;DHT22;3471;49.678;8.388;2023-07-02T04:35:09;17.60;99.90
6865;DHT22;3471;49.678;8.388;2023-07-02T04:37:35;17.60;99.90
6865;DHT22;3471;49.678;8.388;2023-07-02T04:40:01;17.60;99.90
6865;DHT22;3471;49.678;8.388;2023-07-02T04:42:29;17.60;99.90
6865;DHT22;3471;49.678;8.388;2023-07-02T04:44:57;17.70;99.90
6865;DHT22;3471;49.678;8.388;2023-07-02T04:47:28;17.70;99.90
6865;DHT22;3471;49.678;8.388;2023-07-02T04:49:54;17.70;99.90
6865;DHT22;3471;49.678;8.388;2023-07-02T04:52:19;17.70;99.90
6865;DHT22;3471;49.678;8.388;2023-07-02T04:54:45;17.70;99.90
6865;DHT22;3471;49.678;8.388;2023-07-02T04:57:10;17.70;99.90
6865;DHT22;3471;49.678;8.388;2023-07-02T04:59:36;17.80;99.90
6865;DHT22;3471;49.678;8.388;2023-07-02T05:02:02;17.80;99.90
6865;DHT22;3471;49.678;8.388;2023-07-02T05:04:28;17.90;99.90
6865;DHT22;3471;49.678;8.388;2023-07-02T05:06:53;17.90;99.90
6865;DHT22;3471;49.678;8.388;2023-07-02T05:09:19;18.00;99.90
6865;DHT22;3471;49.678;8.388;2023-07-02T05:11:44;18.00;99.90
6865;DHT22;3471;49.678;8.388;2023-07-02T05:14:10;17.90;99.90
6865;DHT22;3471;49.678;8.388;2023-07-02T05:16:35;18.00;99.90
6865;DHT22;3471;49.678;8.388;2023-07-02T05:19:01;18.00;99.90
6865;DHT22;3471;49.678;8.388;2023-07-02T05:21:26;18.00;99.90
6865;DHT22;3471;49.678;8.388;2023-07-02T05:23:52;18.00;99.90
6865;DHT22;3471;49.678;8.388;2023-07-02T05:26:18;18.10;99.90
6865;DHT22;3471;49.678;8.388;2023-07-02T05:28:43;18.10;99.90
6865;DHT22;3471;49.678;8.388;2023-07-02T05:31:09;18.20;99.90
6865;DHT22;3471;49.678;8.388;2023-07-02T05:33:35;18.20;99.90
6865;DHT22;3471;49.678;8.388;2023-07-02T05:36:01;18.30;99.90
6865;DHT22;3471;49.678;8.388;2023-07-02T05:38:26;18.20;99.90
6865;DHT22;3471;49.678;8.388;2023-07-02T05:40:52;18.20;99.90
6865;DHT22;3471;49.678;8.388;2023-07-02T05:43:18;18.20;99.90
6865;DHT22;3471;49.678;8.388;2023-07-02T05:45:43;18.20;99.90
6865;DHT22;3471;49.678;8.388;2023-07-02T05:48:09;18.30;99.90
6865;DHT22;3471;49.678;8.388;2023-07-02T05:50:35;18.40;99.90
6865;DHT22;3471;49.678;8.388;2023-07-02T05:53:00;18.40;99.90
6865;DHT22;3471;49.678;8.388;2023-07-02T05:55:26;18.50;99.90
6865;DHT22;3471;49.678;8.388;2023-07-02T05:57:51;18.60;99.90
6865;DHT22;3471;49.678;8.388;2023-07-02T06:00:17;18.70;99.90
6865;DHT22;3471;49.678;8.388;2023-07-02T06:02:46;18.70;99.90
6865;DHT22;3471;49.678;8.388;2023-07-02T06:05:12;18.80;99.90
6865;DHT22;3471;49.678;8.388;2023-07-02T06:07:37;19.00;99.90
6865;DHT22;3471;49.678;8.388;2023-07-02T06:10:03;19.10;99.90
6865;DHT22;3471;49.678;8.388;2023-07-02T06:12:28;19.10;99.90
6865;DHT22;3471;49.678;8.388;2023-07-02T06:14:54;19.20;99.90
6865;DHT22;3471;49.678;8.388;2023-07-02T06:17:20;19.30;99.90
6865;DHT22;3471;49.678;8.388;2023-07-02T06:19:47;19.40;99.90
6865;DHT22;3471;49.678;8.388;2023-07-02T06:22:12;19.50;99.90
6865;DHT22;3471;49.678;8.388;2023-07-02T06:24:38;19.60;99.90
6865;DHT22;3471;49.678;8.388;2023-07-02T06:27:03;19.70;99.90
6865;DHT22;3471;49.678;8.388;2023-07-02T06:29:29;19.70;99.90
6865;DHT22;3471;49.678;8.388;2023-07-02T06:31:55;19.70;99.90
6865;DHT22;3471;49.678;8.388;2023-07-02T06:34:21;19.70;99.90
6865;DHT22;3471;49.678;8.388;2023-07-02T06:36:47;19.70;99.90
6865;DHT22;3471;49.678;8.388;2023-07-02T06:39:13;19.80;99.90
6865;DHT22;3471;49.678;8.388;2023-07-02T06:41:38;19.80;99.90
6865;DHT22;3471;49.678;8.388;2023-07-02T06:44:04;19.80;99.90
6865;DHT22;3471;49.678;8.388;2023-07-02T06:46:30;19.80;99.90
6865;DHT22;3471;49.678;8.388;2023-07-02T06:48:56;19.80;99.90
6865;DHT22;3471;49.678;8.388;2023-07-02T06:51:22;19.70;99.90
6865;DHT22;3471;49.678;8.388;2023-07-02T06:53:48;19.70;99.90
6865;DHT22;3471;49.678;8.388;2023-07-02T06:56:14;19.70;99.90
6865;DHT22;3471;49.678;8.388;2023-07-02T06:58:42;19.70;99.90
6865;DHT22;3471;49.678;8.388;2023-07-02T07:01:08;19.70;99.90
6865;DHT22;3471;49.678;8.388;2023-07-02T07:03:35;19.80;99.90
6865;DHT22;3471;49.678;8.388;2023-07-02T07:06:01;19.80;99.90
6865;DHT22;3471;49.678;8.388;2023-07-02T07:08:27;19.80;99.90
6865;DHT22;3471;49.678;8.388;2023-07-02T07:10:52;19.90;99.90
6865;DHT22;3471;49.678;8.388;2023-07-02T07:13:18;20.00;99.90
6865;DHT22;3471;49.678;8.388;2023-07-02T07:15:45;20.00;99.90
6865;DHT22;3471;49.678;8.388;2023-07-02T07:18:10;20.10;99.90
6865;DHT22;3471;49.678;8.388;2023-07-02T07:20:39;20.20;99.90
6865;DHT22;3471;49.678;8.388;2023-07-02T07:23:06;20.30;99.90
6865;DHT22;3471;49.678;8.388;2023-07-02T07:25:33;20.40;99.90
6865;DHT22;3471;49.678;8.388;2023-07-02T07:28:01;20.60;99.90
6865;DHT22;3471;49.678;8.388;2023-07-02T07:30:27;20.70;99.90
6865;DHT22;3471;49.678;8.388;2023-07-02T07:32:53;20.80;99.90
6865;DHT22;3471;49.678;8.388;2023-07-02T07:35:20;20.80;99.90
6865;DHT22;3471;49.678;8.388;2023-07-02T07:37:47;21.00;99.90
6865;DHT22;3471;49.678;8.388;2023-07-02T07:40:13;21.00;99.90
6865;DHT22;3471;49.678;8.388;2023-07-02T07:42:39;21.10;99.90
6865;DHT22;3471;49.678;8.388;2023-07-02T07:45:05;21.20;99.90
6865;DHT22;3471;49.678;8.388;2023-07-02T07:47:31;21.20;99.90
6865;DHT22;3471;49.678;8.388;2023-07-02T07:49:57;21.30;99.90
6865;DHT22;3471;49.678;8.388;2023-07-02T07:52:26;21.40;99.90
6865;DHT22;3471;49.678;8.388;2023-07-02T07:54:52;21.50;99.90
6865;DHT22;3471;49.678;8.388;2023-07-02T07:57:18;21.60;99.90
6865;DHT22;3471;49.678;8.388;2023-07-02T07:59:44;21.70;99.90
6865;DHT22;3471;49.678;8.388;2023-07-02T08:02:09;21.80;99.90
6865;DHT22;3471;49.678;8.388;2023-07-02T08:04:35;21.80;99.90
6865;DHT22;3471;49.678;8.388;2023-07-02T08:07:01;21.90;99.90
6865;DHT22;3471;49.678;8.388;2023-07-02T08:09:30;22.00;99.90
6865;DHT22;3471;49.678;8.388;2023-07-02T08:11:55;22.20;99.90
6865;DHT22;3471;49.678;8.388;2023-07-02T08:14:21;22.20;99.90
6865;DHT22;3471;49.678;8.388;2023-07-02T08:16:46;22.30;99.90
6865;DHT22;3471;49.678;8.388;2023-07-02T08:19:12;22.50;99.90
6865;DHT22;3471;49.678;8.388;2023-07-02T08:21:37;22.60;99.90
6865;DHT22;3471;49.678;8.388;2023-07-02T08:24:03;22.60;99.90
6865;DHT22;3471;49.678;8.388;2023-07-02T08:26:29;22.70;99.90
6865;DHT22;3471;49.678;8.388;2023-07-02T08:28:55;22.70;99.90
6865;DHT22;3471;49.678;8.388;2023-07-02T08:31:20;22.70;99.90
6865;DHT22;3471;49.678;8.388;2023-07-02T08:33:46;22.70;99.90
6865;DHT22;3471;49.678;8.388;2023-07-02T08:36:12;22.70;99.90
6865;DHT22;3471;49.678;8.388;2023-07-02T08:38:39;22.70;99.90
6865;DHT22;3471;49.678;8.388;2023-07-02T08:41:08;22.80;99.90
6865;DHT22;3471;49.678;8.388;2023-07-02T08:43:35;22.70;99.90
6865;DHT22;3471;49.678;8.388;2023-07-02T08:46:02;22.60;99.90
6865;DHT22;3471;49.678;8.388;2023-07-02T08:48:28;22.50;99.90
6865;DHT22;3471;49.678;8.388;2023-07-02T08:50:55;22.50;99.90
6865;DHT22;3471;49.678;8.388;2023-07-02T08:53:21;22.70;99.90
6865;DHT22;3471;49.678;8.388;2023-07-02T08:55:55;22.80;99.90
6865;DHT22;3471;49.678;8.388;2023-07-02T08:58:20;23.00;99.90
6865;DHT22;3471;49.678;8.388;2023-07-02T09:03:32;23.10;99.90
6865;DHT22;3471;49.678;8.388;2023-07-02T09:05:58;22.90;99.90
6865;DHT22;3471;49.678;8.388;2023-07-02T09:08:28;22.60;99.90
6865;DHT22;3471;49.678;8.388;2023-07-02T09:10:54;22.70;99.90
6865;DHT22;3471;49.678;8.388;2023-07-02T09:13:20;22.80;99.90
6865;DHT22;3471;49.678;8.388;2023-07-02T09:15:46;23.00;99.90
6865;DHT22;3471;49.678;8.388;2023-07-02T09:20:44;23.50;99.80
6865;DHT22;3471;49.678;8.388;2023-07-02T09:23:09;23.30;99.40
6865;DHT22;3471;49.678;8.388;2023-07-02T09:25:40;23.20;99.40
6865;DHT22;3471;49.678;8.388;2023-07-02T09:28:22;23.40;99.70
6865;DHT22;3471;49.678;8.388;2023-07-02T09:30:54;23.50;99.30
6865;DHT22;3471;49.678;8.388;2023-07-02T09:33:21;23.50;98.80
6865;DHT22;3471;49.678;8.388;2023-07-02T09:35:47;23.60;99.10
6865;DHT22;3471;49.678;8.388;2023-07-02T09:38:13;23.50;99.00
6865;DHT22;3471;49.678;8.388;2023-07-02T09:40:50;23.50;99.70
6865;DHT22;3471;49.678;8.388;2023-07-02T09:43:16;23.40;98.80
6865;DHT22;3471;49.678;8.388;2023-07-02T09:45:43;23.40;99.20
6865;DHT22;3471;49.678;8.388;2023-07-02T09:48:13;23.60;98.60
6865;DHT22;3471;49.678;8.388;2023-07-02T09:50:42;23.80;98.80
6865;DHT22;3471;49.678;8.388;2023-07-02T09:53:08;23.80;98.30
6865;DHT22;3471;49.678;8.388;2023-07-02T09:55:34;23.70;97.80
6865;DHT22;3471;49.678;8.388;2023-07-02T09:58:00;23.80;98.20
6865;DHT22;3471;49.678;8.388;2023-07-02T10:00:25;23.90;97.20
6865;DHT22;3471;49.678;8.388;2023-07-02T10:02:51;24.10;97.40
6865;DHT22;3471;49.678;8.388;2023-07-02T10:05:27;24.10;97.10
6865;DHT22;3471;49.678;8.388;2023-07-02T10:07:53;23.90;96.50
6865;DHT22;3471;49.678;8.388;2023-07-02T10:10:45;23.70;97.20
6865;DHT22;3471;49.678;8.388;2023-07-02T10:13:11;23.80;96.80
6865;DHT22;3471;49.678;8.388;2023-07-02T10:15:36;23.90;95.90
6865;DHT22;3471;49.678;8.388;2023-07-02T10:18:04;24.10;95.40
6865;DHT22;3471;49.678;8.388;2023-07-02T10:20:39;24.30;95.30
6865;DHT22;3471;49.678;8.388;2023-07-02T10:23:07;24.40;94.70
6865;DHT22;3471;49.678;8.388;2023-07-02T10:25:37;24.60;95.10
6865;DHT22;3471;49.678;8.388;2023-07-02T10:28:18;24.90;95.80
6865;DHT22;3471;49.678;8.388;2023-07-02T10:30:48;25.10;94.40
6865;DHT22;3471;49.678;8.388;2023-07-02T10:33:17;25.10;94.50
6865;DHT22;3471;49.678;8.388;2023-07-02T10:35:48;25.10;94.00
6865;DHT22;3471;49.678;8.388;2023-07-02T10:38:24;25.00;94.20
6865;DHT22;3471;49.678;8.388;2023-07-02T10:40:57;25.00;94.00
6865;DHT22;3471;49.678;8.388;2023-07-02T10:43:25;25.10;94.50
6865;DHT22;3471;49.678;8.388;2023-07-02T10:45:50;25.20;94.10
6865;DHT22;3471;49.678;8.388;2023-07-02T10:48:16;25.20;93.50
6865;DHT22;3471;49.678;8.388;2023-07-02T10:50:42;25.00;93.70
6865;DHT22;3471;49.678;8.388;2023-07-02T10:53:14;24.90;94.10
6865;DHT22;3471;49.678;8.388;2023-07-02T10:55:40;24.80;93.90
6865;DHT22;3471;49.678;8.388;2023-07-02T10:58:08;24.70;93.40
6865;DHT22;3471;49.678;8.388;2023-07-02T11:00:50;24.70;93.90
6865;DHT22;3471;49.678;8.388;2023-07-02T11:05:43;24.70;94.00
6865;DHT22;3471;49.678;8.388;2023-07-02T11:08:09;24.70;93.80
6865;DHT22;3471;49.678;8.388;2023-07-02T11:10:35;24.50;93.90
6865;DHT22;3471;49.678;8.388;2023-07-02T11:13:13;24.50;94.10
6865;DHT22;3471;49.678;8.388;2023-07-02T11:15:39;24.60;93.60
6865;DHT22;3471;49.678;8.388;2023-07-02T11:18:13;24.70;94.20
6865;DHT22;3471;49.678;8.388;2023-07-02T11:20:41;24.70;94.30
6865;DHT22;3471;49.678;8.388;2023-07-02T11:23:19;24.70;94.00
6865;DHT22;3471;49.678;8.388;2023-07-02T11:25:58;24.80;93.80
6865;DHT22;3471;49.678;8.388;2023-07-02T11:28:24;25.00;93.20
6865;DHT22;3471;49.678;8.388;2023-07-02T11:30:50;25.10;92.70
6865;DHT22;3471;49.678;8.388;2023-07-02T11:33:16;25.00;92.50
6865;DHT22;3471;49.678;8.388;2023-07-02T11:35:41;25.00;92.20
6865;DHT22;3471;49.678;8.388;2023-07-02T11:38:11;25.00;92.20
6865;DHT22;3471;49.678;8.388;2023-07-02T11:40:37;24.90;92.50
6865;DHT22;3471;49.678;8.388;2023-07-02T11:43:03;25.00;92.40
6865;DHT22;3471;49.678;8.388;2023-07-02T11:45:33;25.10;92.70
6865;DHT22;3471;49.678;8.388;2023-07-02T11:47:59;25.20;92.50
6865;DHT22;3471;49.678;8.388;2023-07-02T11:50:24;25.30;92.80
6865;DHT22;3471;49.678;8.388;2023-07-02T11:52:50;25.40;92.10
6865;DHT22;3471;49.678;8.388;2023-07-02T11:55:15;25.40;91.60
6865;DHT22;3471;49.678;8.388;2023-07-02T11:57:42;25.40;91.00
6865;DHT22;3471;49.678;8.388;2023-07-02T12:00:08;25.40;91.40
6865;DHT22;3471;49.678;8.388;2023-07-02T12:02:34;25.60;91.80
6865;DHT22;3471;49.678;8.388;2023-07-02T12:04:59;25.60;90.70
6865;DHT22;3471;49.678;8.388;2023-07-02T12:07:25;25.70;90.90
6865;DHT22;3471;49.678;8.388;2023-07-02T12:09:51;25.70;91.00
6865;DHT22;3471;49.678;8.388;2023-07-02T12:12:16;25.60;90.60
6865;DHT22;3471;49.678;8.388;2023-07-02T12:14:42;25.50;90.50
6865;DHT22;3471;49.678;8.388;2023-07-02T12:17:09;25.60;90.00
6865;DHT22;3471;49.678;8.388;2023-07-02T12:19:39;25.70;90.50
6865;DHT22;3471;49.678;8.388;2023-07-02T12:22:05;25.60;90.40
6865;DHT22;3471;49.678;8.388;2023-07-02T12:24:31;25.50;90.30
6865;DHT22;3471;49.678;8.388;2023-07-02T12:26:57;25.40;90.90
6865;DHT22;3471;49.678;8.388;2023-07-02T12:29:22;25.40;90.80
6865;DHT22;3471;49.678;8.388;2023-07-02T12:31:48;25.40;90.80
6865;DHT22;3471;49.678;8.388;2023-07-02T12:34:13;25.30;90.40
6865;DHT22;3471;49.678;8.388;2023-07-02T12:36:39;25.20;90.70
6865;DHT22;3471;49.678;8.388;2023-07-02T12:39:04;25.20;90.90
6865;DHT22;3471;49.678;8.388;2023-07-02T12:41:30;25.40;91.40
6865;DHT22;3471;49.678;8.388;2023-07-02T12:43:56;25.70;90.90
6865;DHT22;3471;49.678;8.388;2023-07-02T12:46:22;25.80;90.00
6865;DHT22;3471;49.678;8.388;2023-07-02T12:48:47;25.90;89.60
6865;DHT22;3471;49.678;8.388;2023-07-02T12:51:13;26.00;90.20
6865;DHT22;3471;49.678;8.388;2023-07-02T12:53:40;26.10;90.30
6865;DHT22;3471;49.678;8.388;2023-07-02T12:56:06;26.30;90.20
6865;DHT22;3471;49.678;8.388;2023-07-02T12:58:32;26.70;90.50
6865;DHT22;3471;49.678;8.388;2023-07-02T13:00:57;27.10;89.50
6865;DHT22;3471;49.678;8.388;2023-07-02T13:03:23;27.30;88.30
6865;DHT22;3471;49.678;8.388;2023-07-02T13:05:50;27.40;88.00
6865;DHT22;3471;49.678;8.388;2023-07-02T13:08:15;27.30;86.60
6865;DHT22;3471;49.678;8.388;2023-07-02T13:10:41;27.20;87.10
6865;DHT22;3471;49.678;8.388;2023-07-02T13:13:07;27.10;86.60
6865;DHT22;3471;49.678;8.388;2023-07-02T13:15:32;26.90;86.70
6865;DHT22;3471;49.678;8.388;2023-07-02T13:17:59;27.00;88.50
6865;DHT22;3471;49.678;8.388;2023-07-02T13:20:25;27.10;87.10
6865;DHT22;3471;49.678;8.388;2023-07-02T13:22:51;27.10;87.90
6865;DHT22;3471;49.678;8.388;2023-07-02T13:25:17;27.10;87.30
6865;DHT22;3471;49.678;8.388;2023-07-02T13:27:42;27.00;88.30
6865;DHT22;3471;49.678;8.388;2023-07-02T13:30:08;27.00;88.00
6865;DHT22;3471;49.678;8.388;2023-07-02T13:32:34;27.10;86.40
6865;DHT22;3471;49.678;8.388;2023-07-02T13:34:59;27.00;86.30
6865;DHT22;3471;49.678;8.388;2023-07-02T13:37:25;26.90;88.20
6865;DHT22;3471;49.678;8.388;2023-07-02T13:39:50;26.80;87.10
6865;DHT22;3471;49.678;8.388;2023-07-02T13:42:16;26.80;87.00
6865;DHT22;3471;49.678;8.388;2023-07-02T13:44:42;26.70;88.50
6865;DHT22;3471;49.678;8.388;2023-07-02T13:47:08;26.90;88.40
6865;DHT22;3471;49.678;8.388;2023-07-02T13:49:34;27.10;86.70
6865;DHT22;3471;49.678;8.388;2023-07-02T13:52:00;27.30;88.90
6865;DHT22;3471;49.678;8.388;2023-07-02T13:54:25;27.70;87.30
6865;DHT22;3471;49.678;8.388;2023-07-02T13:56:51;28.10;87.10
6865;DHT22;3471;49.678;8.388;2023-07-02T13:59:18;28.50;84.00
6865;DHT22;3471;49.678;8.388;2023-07-02T14:01:45;28.80;85.40
6865;DHT22;3471;49.678;8.388;2023-07-02T14:04:11;29.10;82.10
6865;DHT22;3471;49.678;8.388;2023-07-02T14:06:37;29.20;80.70
6865;DHT22;3471;49.678;8.388;2023-07-02T14:09:03;29.20;81.30
6865;DHT22;3471;49.678;8.388;2023-07-02T14:11:29;29.00;78.50
6865;DHT22;3471;49.678;8.388;2023-07-02T14:13:56;28.60;79.00
6865;DHT22;3471;49.678;8.388;2023-07-02T14:16:22;28.30;81.80
6865;DHT22;3471;49.678;8.388;2023-07-02T14:18:49;28.30;82.70
6865;DHT22;3471;49.678;8.388;2023-07-02T14:21:15;28.30;81.60
6865;DHT22;3471;49.678;8.388;2023-07-02T14:23:43;28.30;81.20
6865;DHT22;3471;49.678;8.388;2023-07-02T14:26:08;28.30;81.40
6865;DHT22;3471;49.678;8.388;2023-07-02T14:28:35;28.10;80.90
6865;DHT22;3471;49.678;8.388;2023-07-02T14:31:03;27.90;81.80
6865;DHT22;3471;49.678;8.388;2023-07-02T14:33:30;28.10;82.30
6865;DHT22;3471;49.678;8.388;2023-07-02T14:36:00;28.40;81.70
6865;DHT22;3471;49.678;8.388;2023-07-02T14:38:26;28.90;79.90
6865;DHT22;3471;49.678;8.388;2023-07-02T14:40:53;29.10;80.60
6865;DHT22;3471;49.678;8.388;2023-07-02T14:43:20;29.10;79.50
6865;DHT22;3471;49.678;8.388;2023-07-02T14:45:50;28.90;80.20
6865;DHT22;3471;49.678;8.388;2023-07-02T14:48:16;28.50;79.60
6865;DHT22;3471;49.678;8.388;2023-07-02T14:50:50;28.10;79.40
6865;DHT22;3471;49.678;8.388;2023-07-02T14:53:17;28.20;82.20
6865;DHT22;3471;49.678;8.388;2023-07-02T14:55:43;28.60;80.10
6865;DHT22;3471;49.678;8.388;2023-07-02T14:58:10;28.80;79.60
6865;DHT22;3471;49.678;8.388;2023-07-02T15:00:43;28.70;79.10
6865;DHT22;3471;49.678;8.388;2023-07-02T15:03:09;28.20;78.70
6865;DHT22;3471;49.678;8.388;2023-07-02T15:05:36;27.80;79.70
6865;DHT22;3471;49.678;8.388;2023-07-02T15:08:01;27.50;80.10
6865;DHT22;3471;49.678;8.388;2023-07-02T15:10:27;27.20;81.90
6865;DHT22;3471;49.678;8.388;2023-07-02T15:12:53;27.00;83.00
6865;DHT22;3471;49.678;8.388;2023-07-02T15:15:18;26.90;82.70
6865;DHT22;3471;49.678;8.388;2023-07-02T15:17:44;27.00;85.20
6865;DHT22;3471;49.678;8.388;2023-07-02T15:20:10;27.30;83.20
6865;DHT22;3471;49.678;8.388;2023-07-02T15:22:37;27.70;85.60
6865;DHT22;3471;49.678;8.388;2023-07-02T15:25:06;28.00;81.20
6865;DHT22;3471;49.678;8.388;2023-07-02T15:27:31;28.10;80.70
6865;DHT22;3471;49.678;8.388;2023-07-02T15:29:57;28.10;80.70
6865;DHT22;3471;49.678;8.388;2023-07-02T15:32:23;28.40;80.40
6865;DHT22;3471;49.678;8.388;2023-07-02T15:34:49;28.80;78.90
6865;DHT22;3471;49.678;8.388;2023-07-02T15:37:14;28.90;78.60
6865;DHT22;3471;49.678;8.388;2023-07-02T15:39:40;29.00;78.00
6865;DHT22;3471;49.678;8.388;2023-07-02T15:42:06;28.80;77.70
6865;DHT22;3471;49.678;8.388;2023-07-02T15:44:31;28.50;78.20
6865;DHT22;3471;49.678;8.388;2023-07-02T15:46:57;28.50;79.10
6865;DHT22;3471;49.678;8.388;2023-07-02T15:49:26;28.40;79.20
6865;DHT22;3471;49.678;8.388;2023-07-02T15:51:51;28.00;78.20
6865;DHT22;3471;49.678;8.388;2023-07-02T15:54:17;27.70;79.30
6865;DHT22;3471;49.678;8.388;2023-07-02T15:56:43;27.60;79.60
6865;DHT22;3471;49.678;8.388;2023-07-02T15:59:12;27.70;80.20
6865;DHT22;3471;49.678;8.388;2023-07-02T16:01:38;27.80;79.90
6865;DHT22;3471;49.678;8.388;2023-07-02T16:04:05;27.90;78.40
6865;DHT22;3471;49.678;8.388;2023-07-02T16:06:35;27.80;78.60